createdAt,value
2018-03-20T00:00:49.130Z,0.00
2018-03-20T00:01:49.109Z,0.00
2018-03-20T00:02:49.124Z,0.00
2018-03-20T00:03:49.178Z,0.00
2018-03-20T00:04:49.127Z,0.00
2018-03-20T00:05:49.139Z,0.00
2018-03-20T00:06:49.159Z,0.00
2018-03-20T00:07:49.163Z,0.00
2018-03-20T00:08:49.173Z,0.00
2018-03-20T00:09:49.172Z,0.00
2018-03-20T00:10:49.243Z,0.00
2018-03-20T00:11:49.188Z,0.00
2018-03-20T00:12:49.218Z,0.00
2018-03-20T00:13:49.214Z,0.00
2018-03-20T00:14:49.223Z,0.00
2018-03-20T00:15:49.228Z,0.00
2018-03-20T00:16:49.239Z,0.00
2018-03-20T00:17:49.266Z,0.00
2018-03-20T00:18:49.264Z,0.00
2018-03-20T00:19:49.268Z,0.00
2018-03-20T00:20:49.267Z,0.00
2018-03-20T00:21:49.293Z,0.00
2018-03-20T00:22:49.300Z,0.00
2018-03-20T00:23:49.297Z,0.00
2018-03-20T00:24:49.303Z,0.00
2018-03-20T00:25:49.314Z,0.00
2018-03-20T00:26:49.316Z,0.00
2018-03-20T00:27:49.346Z,0.00
2018-03-20T00:28:49.343Z,0.00
2018-03-20T00:29:49.356Z,0.00
2018-03-20T00:30:49.353Z,0.00
2018-03-20T00:31:49.371Z,0.00
2018-03-20T00:32:49.373Z,0.00
2018-03-20T00:33:49.381Z,0.00
2018-03-20T00:34:49.409Z,0.00
2018-03-20T00:35:49.411Z,0.00
2018-03-20T00:36:49.440Z,0.00
2018-03-20T00:37:49.425Z,0.00
2018-03-20T00:38:49.440Z,0.00
2018-03-20T00:39:49.430Z,0.00
2018-03-20T00:40:49.437Z,0.00
2018-03-20T00:41:49.470Z,0.00
2018-03-20T00:42:49.457Z,0.00
2018-03-20T00:43:49.471Z,0.00
2018-03-20T00:44:49.471Z,0.00
2018-03-20T00:45:49.492Z,0.00
2018-03-20T00:46:49.490Z,0.00
2018-03-20T00:47:49.525Z,0.00
2018-03-20T00:48:49.532Z,0.00
2018-03-20T00:49:49.528Z,0.00
2018-03-20T00:50:49.525Z,0.00
2018-03-20T00:51:49.547Z,0.00
2018-03-20T00:52:49.577Z,0.00
2018-03-20T00:53:49.562Z,0.00
2018-03-20T00:54:49.562Z,0.00
2018-03-20T00:55:49.591Z,0.00
2018-03-20T00:56:49.604Z,0.00
2018-03-20T00:57:49.627Z,0.00
2018-03-20T00:58:49.590Z,0.00
2018-03-20T00:59:49.603Z,0.00
2018-03-20T01:00:49.639Z,0.00
2018-03-20T01:01:49.647Z,0.00
2018-03-20T01:02:49.632Z,0.00
2018-03-20T01:03:49.639Z,0.00
2018-03-20T01:04:49.668Z,0.00
2018-03-20T01:05:49.660Z,0.00
2018-03-20T01:06:49.677Z,0.00
2018-03-20T01:07:49.686Z,0.00
2018-03-20T01:08:49.679Z,0.00
2018-03-20T01:09:49.687Z,0.00
2018-03-20T01:10:49.729Z,0.00
2018-03-20T01:11:49.743Z,0.00
2018-03-20T01:12:49.720Z,0.00
2018-03-20T01:13:49.746Z,0.00
2018-03-20T01:14:49.727Z,0.00
2018-03-20T01:15:49.824Z,0.00
2018-03-20T01:16:49.759Z,0.00
2018-03-20T01:17:49.774Z,0.00
2018-03-20T01:18:49.781Z,0.00
2018-03-20T01:19:49.808Z,0.00
2018-03-20T01:20:49.784Z,0.00
2018-03-20T01:21:49.787Z,0.00
2018-03-20T01:22:49.797Z,0.00
2018-03-20T01:23:49.824Z,0.00
2018-03-20T01:24:49.820Z,0.00
2018-03-20T01:25:49.841Z,0.00
2018-03-20T01:26:49.863Z,0.00
2018-03-20T01:27:49.851Z,0.00
2018-03-20T01:28:49.855Z,0.00
2018-03-20T01:29:49.864Z,0.00
2018-03-20T01:30:49.866Z,0.00
2018-03-20T01:31:49.885Z,0.00
2018-03-20T01:32:49.892Z,0.00
2018-03-20T01:33:49.916Z,0.00
2018-03-20T01:34:49.900Z,0.00
2018-03-20T01:35:49.933Z,0.00
2018-03-20T01:36:49.931Z,0.00
2018-03-20T01:37:49.932Z,0.00
2018-03-20T01:38:49.939Z,0.00
2018-03-20T01:39:49.956Z,0.00
2018-03-20T01:40:49.951Z,0.00
2018-03-20T01:41:49.962Z,0.00
2018-03-20T01:42:50.094Z,0.00
2018-03-20T01:43:49.976Z,0.00
2018-03-20T01:44:50.009Z,0.00
2018-03-20T01:45:50.009Z,0.00
2018-03-20T01:46:50.010Z,0.00
2018-03-20T01:47:50.016Z,0.00
2018-03-20T01:48:50.017Z,0.00
2018-03-20T01:49:50.032Z,0.00
2018-03-20T01:50:50.045Z,0.00
2018-03-20T01:51:50.058Z,0.00
2018-03-20T01:52:50.060Z,0.00
2018-03-20T01:53:50.075Z,0.00
2018-03-20T01:54:50.094Z,0.00
2018-03-20T01:55:50.079Z,0.00
2018-03-20T01:56:50.135Z,0.00
2018-03-20T01:57:50.149Z,0.00
2018-03-20T01:58:50.106Z,0.00
2018-03-20T01:59:50.122Z,0.00
2018-03-20T02:00:50.181Z,0.00
2018-03-20T02:01:50.162Z,0.00
2018-03-20T02:02:50.141Z,0.00
2018-03-20T02:03:50.156Z,0.00
2018-03-20T02:04:50.157Z,0.00
2018-03-20T02:05:50.182Z,0.00
2018-03-20T02:06:50.176Z,0.00
2018-03-20T02:07:50.189Z,0.00
2018-03-20T02:08:50.244Z,0.00
2018-03-20T02:09:50.215Z,0.00
2018-03-20T02:10:50.230Z,0.00
2018-03-20T02:11:50.290Z,0.00
2018-03-20T02:12:50.253Z,0.00
2018-03-20T02:13:50.232Z,0.00
2018-03-20T02:14:50.238Z,0.00
2018-03-20T02:15:50.258Z,0.00
2018-03-20T02:16:50.261Z,0.00
2018-03-20T02:17:50.277Z,0.00
2018-03-20T02:18:50.283Z,0.00
2018-03-20T02:19:50.282Z,0.00
2018-03-20T02:20:50.301Z,0.00
2018-03-20T02:21:50.301Z,0.00
2018-03-20T02:22:50.338Z,0.00
2018-03-20T02:23:50.339Z,0.00
2018-03-20T02:24:50.342Z,0.00
2018-03-20T02:25:50.345Z,0.00
2018-03-20T02:26:50.398Z,0.00
2018-03-20T02:27:50.375Z,0.00
2018-03-20T02:28:50.392Z,0.00
2018-03-20T02:29:50.378Z,0.00
2018-03-20T02:30:50.393Z,0.00
2018-03-20T02:31:50.400Z,0.00
2018-03-20T02:32:50.423Z,0.00
2018-03-20T02:33:50.470Z,0.00
2018-03-20T02:34:50.429Z,0.00
2018-03-20T02:35:50.460Z,0.00
2018-03-20T02:36:50.449Z,0.00
2018-03-20T02:37:50.485Z,0.00
2018-03-20T02:38:50.483Z,0.00
2018-03-20T02:39:50.519Z,0.00
2018-03-20T02:40:50.475Z,0.00
2018-03-20T02:41:50.513Z,0.00
2018-03-20T02:42:50.519Z,0.00
2018-03-20T02:43:50.518Z,0.00
2018-03-20T02:44:50.528Z,0.00
2018-03-20T02:45:50.529Z,0.00
2018-03-20T02:46:50.560Z,0.00
2018-03-20T02:47:50.553Z,0.00
2018-03-20T02:48:50.569Z,0.00
2018-03-20T02:49:50.606Z,0.00
2018-03-20T02:50:50.607Z,0.00
2018-03-20T02:51:50.593Z,0.00
2018-03-20T02:52:50.608Z,0.00
2018-03-20T02:53:50.611Z,0.00
2018-03-20T02:54:50.619Z,0.00
2018-03-20T02:55:50.648Z,0.00
2018-03-20T02:56:50.646Z,0.00
2018-03-20T02:57:50.656Z,0.00
2018-03-20T02:58:50.669Z,0.00
2018-03-20T02:59:50.694Z,0.00
2018-03-20T03:00:50.704Z,0.00
2018-03-20T03:01:50.692Z,0.00
2018-03-20T03:02:50.722Z,0.00
2018-03-20T03:03:50.724Z,0.00
2018-03-20T03:04:50.736Z,0.00
2018-03-20T03:05:50.740Z,0.00
2018-03-20T03:06:50.770Z,0.00
2018-03-20T03:07:50.770Z,0.00
2018-03-20T03:08:50.786Z,0.00
2018-03-20T03:09:50.774Z,0.00
2018-03-20T03:10:50.778Z,0.00
2018-03-20T03:11:50.804Z,0.00
2018-03-20T03:12:50.809Z,0.00
2018-03-20T03:13:50.806Z,0.00
2018-03-20T03:14:50.830Z,0.00
2018-03-20T03:15:50.863Z,0.00
2018-03-20T03:16:50.856Z,0.00
2018-03-20T03:17:50.850Z,0.00
2018-03-20T03:18:50.887Z,0.00
2018-03-20T03:19:50.875Z,0.00
2018-03-20T03:20:50.882Z,0.00
2018-03-20T03:21:50.914Z,0.00
2018-03-20T03:22:50.917Z,0.00
2018-03-20T03:23:50.931Z,0.00
2018-03-20T03:24:50.943Z,0.00
2018-03-20T03:25:50.942Z,0.00
2018-03-20T03:26:50.944Z,0.00
2018-03-20T03:27:50.983Z,0.00
2018-03-20T03:28:50.966Z,0.00
2018-03-20T03:29:51.004Z,0.00
2018-03-20T03:30:51.009Z,0.00
2018-03-20T03:31:51.004Z,0.00
2018-03-20T03:32:51.005Z,0.00
2018-03-20T03:33:51.095Z,0.00
2018-03-20T03:34:51.061Z,0.00
2018-03-20T03:35:51.057Z,0.00
2018-03-20T03:36:51.051Z,0.00
2018-03-20T03:37:51.075Z,0.00
2018-03-20T03:38:51.124Z,0.00
2018-03-20T03:39:51.087Z,0.00
2018-03-20T03:40:51.100Z,0.00
2018-03-20T03:41:51.135Z,0.00
2018-03-20T03:42:51.120Z,0.00
2018-03-20T03:43:51.139Z,0.00
2018-03-20T03:44:51.132Z,0.00
2018-03-20T03:45:51.158Z,0.00
2018-03-20T03:46:51.162Z,0.00
2018-03-20T03:47:51.180Z,0.00
2018-03-20T03:48:51.192Z,0.00
2018-03-20T03:49:51.197Z,0.00
2018-03-20T03:50:51.270Z,0.00
2018-03-20T03:51:51.218Z,0.00
2018-03-20T03:52:51.249Z,0.00
2018-03-20T03:53:51.267Z,0.00
2018-03-20T03:54:51.276Z,0.00
2018-03-20T03:55:51.256Z,0.00
2018-03-20T03:56:51.285Z,0.00
2018-03-20T03:57:51.280Z,0.00
2018-03-20T03:58:51.286Z,0.00
2018-03-20T03:59:51.303Z,0.00
2018-03-20T04:00:51.308Z,0.00
2018-03-20T04:01:51.331Z,0.00
2018-03-20T04:02:51.340Z,0.00
2018-03-20T04:03:51.337Z,0.00
2018-03-20T04:04:51.351Z,0.00
2018-03-20T04:05:51.383Z,0.00
2018-03-20T04:06:51.372Z,0.00
2018-03-20T04:07:51.498Z,0.00
2018-03-20T04:08:51.392Z,0.00
2018-03-20T04:09:51.425Z,0.00
2018-03-20T04:10:51.422Z,0.00
2018-03-20T04:11:51.430Z,0.00
2018-03-20T04:12:51.444Z,0.00
2018-03-20T04:13:51.469Z,0.00
2018-03-20T04:14:51.477Z,0.00
2018-03-20T04:15:51.479Z,0.00
2018-03-20T04:16:51.502Z,0.00
2018-03-20T04:17:51.502Z,0.00
2018-03-20T04:18:51.513Z,0.00
2018-03-20T04:19:51.532Z,0.00
2018-03-20T04:20:51.522Z,0.00
2018-03-20T04:21:51.537Z,0.00
2018-03-20T04:22:51.545Z,0.00
2018-03-20T04:23:51.563Z,0.00
2018-03-20T04:24:51.573Z,0.00
2018-03-20T04:25:51.602Z,0.00
2018-03-20T04:26:51.598Z,0.00
2018-03-20T04:27:51.604Z,0.00
2018-03-20T04:28:51.613Z,0.00
2018-03-20T04:29:51.658Z,0.00
2018-03-20T04:30:51.643Z,0.00
2018-03-20T04:31:51.643Z,0.00
2018-03-20T04:32:51.652Z,0.00
2018-03-20T04:33:51.658Z,0.00
2018-03-20T04:34:51.698Z,0.00
2018-03-20T04:35:51.686Z,0.00
2018-03-20T04:36:51.696Z,0.00
2018-03-20T04:37:51.715Z,0.00
2018-03-20T04:38:51.723Z,0.00
2018-03-20T04:39:51.763Z,0.00
2018-03-20T04:40:51.751Z,0.00
2018-03-20T04:41:51.818Z,0.00
2018-03-20T04:42:51.770Z,0.00
2018-03-20T04:43:51.774Z,0.00
2018-03-20T04:44:51.808Z,0.00
2018-03-20T04:45:51.809Z,0.00
2018-03-20T04:46:51.812Z,0.00
2018-03-20T04:47:51.842Z,0.00
2018-03-20T04:48:51.830Z,0.00
2018-03-20T04:49:51.850Z,0.00
2018-03-20T04:50:51.848Z,0.00
2018-03-20T04:51:51.879Z,0.00
2018-03-20T04:52:51.871Z,0.00
2018-03-20T04:53:51.916Z,0.00
2018-03-20T04:54:51.910Z,4.00
2018-03-20T04:55:51.915Z,4.00
2018-03-20T04:56:51.915Z,4.00
2018-03-20T04:57:51.928Z,4.00
2018-03-20T04:58:51.951Z,0.00
2018-03-20T04:59:51.953Z,0.00
2018-03-20T05:00:51.959Z,0.00
2018-03-20T05:01:51.981Z,4.00
2018-03-20T05:02:51.979Z,4.00
2018-03-20T05:03:51.998Z,0.00
2018-03-20T05:04:52.034Z,4.00
2018-03-20T05:05:52.030Z,4.00
2018-03-20T05:06:52.050Z,8.00
2018-03-20T05:07:52.052Z,4.00
2018-03-20T05:08:52.042Z,8.00
2018-03-20T05:09:52.063Z,8.00
2018-03-20T05:10:52.088Z,8.00
2018-03-20T05:11:52.109Z,12.00
2018-03-20T05:12:52.118Z,12.00
2018-03-20T05:13:52.119Z,16.00
2018-03-20T05:14:52.115Z,16.00
2018-03-20T05:15:52.134Z,20.00
2018-03-20T05:16:52.142Z,24.00
2018-03-20T05:17:52.146Z,28.00
2018-03-20T05:18:52.157Z,32.00
2018-03-20T05:19:52.165Z,36.00
2018-03-20T05:20:52.178Z,40.00
2018-03-20T05:21:52.209Z,44.00
2018-03-20T05:22:52.201Z,48.00
2018-03-20T05:23:52.275Z,60.00
2018-03-20T05:24:52.225Z,68.00
2018-03-20T05:25:52.234Z,76.00
2018-03-20T05:26:52.252Z,80.00
2018-03-20T05:27:52.269Z,84.00
2018-03-20T05:28:52.321Z,84.00
2018-03-20T05:29:52.281Z,88.00
2018-03-20T05:30:52.292Z,92.00
2018-03-20T05:31:52.293Z,104.00
2018-03-20T05:32:52.298Z,120.00
2018-03-20T05:33:52.321Z,120.00
2018-03-20T05:34:52.333Z,120.00
2018-03-20T05:35:52.341Z,124.00
2018-03-20T05:36:52.354Z,128.00
2018-03-20T05:37:52.351Z,136.00
2018-03-20T05:38:52.374Z,144.00
2018-03-20T05:39:52.373Z,152.00
2018-03-20T05:40:52.386Z,160.00
2018-03-20T05:41:52.398Z,172.00
2018-03-20T05:42:52.409Z,192.00
2018-03-20T05:43:52.418Z,212.00
2018-03-20T05:44:52.425Z,220.00
2018-03-20T05:45:52.450Z,216.00
2018-03-20T05:46:52.460Z,224.00
2018-03-20T05:47:52.458Z,224.00
2018-03-20T05:48:52.487Z,228.00
2018-03-20T05:49:52.478Z,244.00
2018-03-20T05:50:52.500Z,260.00
2018-03-20T05:51:52.513Z,284.00
2018-03-20T05:52:52.522Z,304.00
2018-03-20T05:53:52.518Z,344.00
2018-03-20T05:54:52.533Z,408.00
2018-03-20T05:55:52.542Z,500.00
2018-03-20T05:56:52.568Z,564.00
2018-03-20T05:57:52.607Z,576.00
2018-03-20T05:58:52.580Z,572.00
2018-03-20T05:59:52.600Z,528.00
2018-03-20T06:00:52.602Z,484.00
2018-03-20T06:01:52.625Z,472.00
2018-03-20T06:02:52.640Z,532.00
2018-03-20T06:03:52.629Z,656.00
2018-03-20T06:04:52.631Z,848.00
2018-03-20T06:05:52.643Z,916.00
2018-03-20T06:06:52.651Z,1004.00
2018-03-20T06:07:52.679Z,1184.00
2018-03-20T06:08:52.697Z,1380.00
2018-03-20T06:09:52.694Z,1464.00
2018-03-20T06:10:52.707Z,1456.00
2018-03-20T06:11:52.740Z,1456.00
2018-03-20T06:12:52.728Z,1556.00
2018-03-20T06:13:52.746Z,1800.00
2018-03-20T06:14:52.753Z,1336.00
2018-03-20T06:15:52.755Z,1124.00
2018-03-20T06:16:52.766Z,1136.00
2018-03-20T06:17:52.779Z,1300.00
2018-03-20T06:18:52.807Z,1560.00
2018-03-20T06:19:52.802Z,1652.00
2018-03-20T06:20:52.828Z,1596.00
2018-03-20T06:21:52.877Z,1540.00
2018-03-20T06:22:52.830Z,1608.00
2018-03-20T06:23:52.863Z,1560.00
2018-03-20T06:24:52.891Z,1348.00
2018-03-20T06:25:52.873Z,1212.00
2018-03-20T06:26:52.874Z,1104.00
2018-03-20T06:27:52.894Z,1028.00
2018-03-20T06:28:52.912Z,968.00
2018-03-20T06:29:52.906Z,900.00
2018-03-20T06:30:52.959Z,904.00
2018-03-20T06:31:52.930Z,968.00
2018-03-20T06:32:52.946Z,1012.00
2018-03-20T06:33:52.980Z,1012.00
2018-03-20T06:34:52.962Z,1040.00
2018-03-20T06:35:52.976Z,1136.00
2018-03-20T06:36:52.980Z,1280.00
2018-03-20T06:37:52.996Z,1500.00
2018-03-20T06:38:53.007Z,1660.00
2018-03-20T06:39:53.028Z,1640.00
2018-03-20T06:40:53.037Z,1736.00
2018-03-20T06:41:53.036Z,1996.00
2018-03-20T06:42:53.059Z,2276.00
2018-03-20T06:43:53.060Z,2636.00
2018-03-20T06:44:53.079Z,2896.00
2018-03-20T06:45:53.108Z,3072.00
2018-03-20T06:46:53.121Z,3232.00
2018-03-20T06:47:53.117Z,3276.00
2018-03-20T06:48:53.121Z,3244.00
2018-03-20T06:49:53.126Z,3216.00
2018-03-20T06:50:53.142Z,3216.00
2018-03-20T06:51:53.155Z,3200.00
2018-03-20T06:52:53.193Z,3248.00
2018-03-20T06:53:53.180Z,3136.00
2018-03-20T06:54:53.198Z,2856.00
2018-03-20T06:55:53.212Z,2468.00
2018-03-20T06:56:53.209Z,2324.00
2018-03-20T06:57:53.244Z,2156.00
2018-03-20T06:58:53.234Z,2064.00
2018-03-20T06:59:53.247Z,1968.00
2018-03-20T07:00:53.274Z,1960.00
2018-03-20T07:01:53.269Z,2128.00
2018-03-20T07:02:53.294Z,2296.00
2018-03-20T07:03:53.300Z,2428.00
2018-03-20T07:04:53.322Z,2276.00
2018-03-20T07:05:53.318Z,2020.00
2018-03-20T07:06:53.333Z,1964.00
2018-03-20T07:07:53.336Z,1880.00
2018-03-20T07:08:53.350Z,1740.00
2018-03-20T07:09:53.366Z,1856.00
2018-03-20T07:10:53.383Z,2020.00
2018-03-20T07:11:53.390Z,1956.00
2018-03-20T07:12:53.396Z,1824.00
2018-03-20T07:13:53.480Z,1792.00
2018-03-20T07:14:53.433Z,1924.00
2018-03-20T07:15:53.433Z,2052.00
2018-03-20T07:16:53.453Z,2076.00
2018-03-20T07:17:53.495Z,2096.00
2018-03-20T07:18:53.477Z,2248.00
2018-03-20T07:19:53.521Z,2416.00
2018-03-20T07:20:53.514Z,2604.00
2018-03-20T07:21:53.502Z,2740.00
2018-03-20T07:22:53.585Z,2972.00
2018-03-20T07:23:53.531Z,2932.00
2018-03-20T07:24:53.546Z,2712.00
2018-03-20T07:25:53.562Z,2656.00
2018-03-20T07:26:53.555Z,2848.00
2018-03-20T07:27:53.563Z,3024.00
2018-03-20T07:28:53.583Z,3064.00
2018-03-20T07:29:53.586Z,3316.00
2018-03-20T07:30:53.642Z,3488.00
2018-03-20T07:31:53.615Z,3800.00
2018-03-20T07:32:53.654Z,3736.00
2018-03-20T07:33:53.664Z,3984.00
2018-03-20T07:34:53.666Z,4260.00
2018-03-20T07:35:53.659Z,4484.00
2018-03-20T07:36:53.696Z,4156.00
2018-03-20T07:37:53.686Z,4144.00
2018-03-20T07:38:53.729Z,3720.00
2018-03-20T07:39:53.757Z,3916.00
2018-03-20T07:40:53.735Z,3776.00
2018-03-20T07:41:53.736Z,3564.00
2018-03-20T07:42:53.759Z,3572.00
2018-03-20T07:43:53.778Z,3564.00
2018-03-20T07:44:53.783Z,3452.00
2018-03-20T07:45:53.786Z,3084.00
2018-03-20T07:46:53.793Z,2988.00
2018-03-20T07:47:53.813Z,3344.00
2018-03-20T07:48:53.823Z,3404.00
2018-03-20T07:49:53.857Z,3596.00
2018-03-20T07:50:53.853Z,3252.00
2018-03-20T07:51:53.856Z,3172.00
2018-03-20T07:52:53.877Z,2904.00
2018-03-20T07:53:53.890Z,2456.00
2018-03-20T07:54:53.928Z,2264.00
2018-03-20T07:55:53.908Z,2164.00
2018-03-20T07:56:53.930Z,2300.00
2018-03-20T07:57:53.947Z,2348.00
2018-03-20T07:58:53.952Z,2404.00
2018-03-20T07:59:54.002Z,2340.00
2018-03-20T08:00:53.970Z,2328.00
2018-03-20T08:01:53.986Z,2272.00
2018-03-20T08:02:54.019Z,2444.00
2018-03-20T08:03:54.012Z,2560.00
2018-03-20T08:04:54.045Z,2572.00
2018-03-20T08:05:54.050Z,2532.00
2018-03-20T08:06:54.055Z,2492.00
2018-03-20T08:07:54.072Z,2556.00
2018-03-20T08:08:54.088Z,2732.00
2018-03-20T08:09:54.116Z,2820.00
2018-03-20T08:10:54.090Z,2704.00
2018-03-20T08:11:54.100Z,2308.00
2018-03-20T08:12:54.130Z,2068.00
2018-03-20T08:13:54.130Z,2052.00
2018-03-20T08:14:54.143Z,2192.00
2018-03-20T08:15:54.155Z,2168.00
2018-03-20T08:16:54.169Z,1968.00
2018-03-20T08:17:54.173Z,2060.00
2018-03-20T08:18:54.191Z,2160.00
2018-03-20T08:19:54.203Z,2548.00
2018-03-20T08:20:54.217Z,2796.00
2018-03-20T08:21:54.225Z,3100.00
2018-03-20T08:22:54.238Z,3364.00
2018-03-20T08:23:54.262Z,3400.00
2018-03-20T08:24:54.287Z,3276.00
2018-03-20T08:25:54.280Z,3276.00
2018-03-20T08:26:54.309Z,3548.00
2018-03-20T08:27:54.318Z,4224.00
2018-03-20T08:28:54.327Z,5488.00
2018-03-20T08:29:54.330Z,8384.00
2018-03-20T08:30:54.345Z,12580.00
2018-03-20T08:31:54.347Z,13796.00
2018-03-20T08:32:54.362Z,10956.00
2018-03-20T08:33:54.374Z,6976.00
2018-03-20T08:34:54.402Z,4872.00
2018-03-20T08:35:54.420Z,3848.00
2018-03-20T08:36:54.424Z,3484.00
2018-03-20T08:37:54.431Z,3452.00
2018-03-20T08:38:54.439Z,3500.00
2018-03-20T08:39:54.475Z,3392.00
2018-03-20T08:40:54.472Z,3256.00
2018-03-20T08:41:54.506Z,2864.00
2018-03-20T08:42:54.517Z,2588.00
2018-03-20T08:43:54.514Z,2368.00
2018-03-20T08:44:54.520Z,2292.00
2018-03-20T08:45:54.536Z,2308.00
2018-03-20T08:46:54.560Z,2364.00
2018-03-20T08:47:54.560Z,2256.00
2018-03-20T08:48:54.579Z,2160.00
2018-03-20T08:49:54.633Z,2100.00
2018-03-20T08:50:54.587Z,2088.00
2018-03-20T08:51:54.610Z,2100.00
2018-03-20T08:52:54.613Z,2080.00
2018-03-20T08:53:54.645Z,2040.00
2018-03-20T08:54:54.666Z,2048.00
2018-03-20T08:55:54.670Z,2112.00
2018-03-20T08:56:54.683Z,2176.00
2018-03-20T08:57:54.678Z,2248.00
2018-03-20T08:58:54.715Z,2304.00
2018-03-20T08:59:54.710Z,2348.00
2018-03-20T09:00:54.726Z,2468.00
2018-03-20T09:01:54.726Z,2664.00
2018-03-20T09:02:54.750Z,2668.00
2018-03-20T09:03:54.755Z,2824.00
2018-03-20T09:04:54.772Z,3312.00
2018-03-20T09:05:54.794Z,3664.00
2018-03-20T09:06:54.795Z,3432.00
2018-03-20T09:07:54.816Z,3464.00
2018-03-20T09:08:54.823Z,3332.00
2018-03-20T09:09:54.827Z,3328.00
2018-03-20T09:10:54.861Z,3640.00
2018-03-20T09:11:54.879Z,3704.00
2018-03-20T09:12:54.870Z,4236.00
2018-03-20T09:13:54.887Z,4332.00
2018-03-20T09:14:54.895Z,3812.00
2018-03-20T09:15:54.905Z,3716.00
2018-03-20T09:16:54.919Z,3812.00
2018-03-20T09:17:54.942Z,4536.00
2018-03-20T09:18:54.948Z,4992.00
2018-03-20T09:19:55.003Z,5420.00
2018-03-20T09:20:54.982Z,5996.00
2018-03-20T09:21:55.004Z,6368.00
2018-03-20T09:22:54.996Z,7484.00
2018-03-20T09:23:55.078Z,8556.00
2018-03-20T09:24:55.019Z,9160.00
2018-03-20T09:25:55.035Z,9696.00
2018-03-20T09:26:55.063Z,11084.00
2018-03-20T09:27:55.056Z,12600.00
2018-03-20T09:28:55.075Z,14308.00
2018-03-20T09:29:55.161Z,13524.00
2018-03-20T09:30:55.113Z,12056.00
2018-03-20T09:31:55.123Z,9708.00
2018-03-20T09:32:55.150Z,10208.00
2018-03-20T09:33:55.154Z,10400.00
2018-03-20T09:34:55.162Z,10396.00
2018-03-20T09:35:55.161Z,11208.00
2018-03-20T09:36:55.209Z,11848.00
2018-03-20T09:37:55.234Z,13564.00
2018-03-20T09:38:55.230Z,13120.00
2018-03-20T09:39:55.221Z,11876.00
2018-03-20T09:40:55.232Z,11964.00
2018-03-20T09:41:55.252Z,12768.00
2018-03-20T09:42:55.280Z,13848.00
2018-03-20T09:43:55.316Z,14172.00
2018-03-20T09:44:55.288Z,16132.00
2018-03-20T09:45:55.320Z,16800.00
2018-03-20T09:46:55.323Z,16512.00
2018-03-20T09:47:55.361Z,15940.00
2018-03-20T09:48:55.348Z,16228.00
2018-03-20T09:49:55.371Z,15832.00
2018-03-20T09:50:55.379Z,15168.00
2018-03-20T09:51:55.400Z,15232.00
2018-03-20T09:52:55.405Z,15716.00
2018-03-20T09:53:55.416Z,14264.00
2018-03-20T09:54:55.440Z,13528.00
2018-03-20T09:55:55.451Z,12888.00
2018-03-20T09:56:55.466Z,13892.00
2018-03-20T09:57:55.489Z,10648.00
2018-03-20T09:58:55.508Z,10904.00
2018-03-20T09:59:55.520Z,13528.00
2018-03-20T10:00:55.533Z,12684.00
2018-03-20T10:01:55.558Z,12580.00
2018-03-20T10:02:55.555Z,13596.00
2018-03-20T10:03:55.581Z,11236.00
2018-03-20T10:04:55.604Z,13404.00
2018-03-20T10:05:55.594Z,14612.00
2018-03-20T10:06:55.627Z,13668.00
2018-03-20T10:07:55.653Z,10892.00
2018-03-20T10:08:55.643Z,11864.00
2018-03-20T10:09:55.675Z,11352.00
2018-03-20T10:10:55.686Z,13336.00
2018-03-20T10:11:55.694Z,14940.00
2018-03-20T10:12:55.729Z,13076.00
2018-03-20T10:13:55.717Z,13188.00
2018-03-20T10:14:55.732Z,14620.00
2018-03-20T10:15:55.747Z,14684.00
2018-03-20T10:16:55.800Z,12744.00
2018-03-20T10:17:55.783Z,12632.00
2018-03-20T10:18:55.810Z,10992.00
2018-03-20T10:19:55.812Z,9576.00
2018-03-20T10:20:55.818Z,8920.00
2018-03-20T10:21:55.838Z,8664.00
2018-03-20T10:22:55.857Z,8556.00
2018-03-20T10:23:55.875Z,8704.00
2018-03-20T10:24:55.900Z,9380.00
2018-03-20T10:25:55.897Z,9168.00
2018-03-20T10:26:55.910Z,9304.00
2018-03-20T10:27:55.942Z,9496.00
2018-03-20T10:28:55.968Z,9592.00
2018-03-20T10:29:55.946Z,9288.00
2018-03-20T10:30:55.968Z,9824.00
2018-03-20T10:31:55.977Z,10540.00
2018-03-20T10:32:56.016Z,10412.00
2018-03-20T10:33:56.013Z,9800.00
2018-03-20T10:34:56.026Z,11000.00
2018-03-20T10:35:56.073Z,11068.00
2018-03-20T10:36:56.066Z,10416.00
2018-03-20T10:37:56.075Z,10840.00
2018-03-20T10:38:56.092Z,12328.00
2018-03-20T10:39:56.100Z,14556.00
2018-03-20T10:40:56.141Z,15876.00
2018-03-20T10:41:56.157Z,15940.00
2018-03-20T10:42:56.173Z,12940.00
2018-03-20T10:43:56.158Z,11904.00
2018-03-20T10:44:56.174Z,13100.00
2018-03-20T10:45:56.195Z,12248.00
2018-03-20T10:46:56.204Z,12948.00
2018-03-20T10:47:56.226Z,12928.00
2018-03-20T10:48:56.236Z,14212.00
2018-03-20T10:49:56.251Z,13396.00
2018-03-20T10:50:56.292Z,10968.00
2018-03-20T10:51:56.283Z,10508.00
2018-03-20T10:52:56.317Z,10408.00
2018-03-20T10:53:56.353Z,10712.00
2018-03-20T10:54:56.345Z,11076.00
2018-03-20T10:55:56.334Z,10680.00
2018-03-20T10:56:56.400Z,12096.00
2018-03-20T10:57:56.363Z,12192.00
2018-03-20T10:58:56.398Z,12408.00
2018-03-20T10:59:56.406Z,11116.00
2018-03-20T11:00:56.448Z,11436.00
2018-03-20T11:01:56.442Z,10220.00
2018-03-20T11:02:56.459Z,10396.00
2018-03-20T11:03:56.475Z,10260.00
2018-03-20T11:04:56.479Z,10080.00
2018-03-20T11:05:56.530Z,10244.00
2018-03-20T11:06:56.504Z,10320.00
2018-03-20T11:07:56.529Z,10520.00
2018-03-20T11:08:56.552Z,10896.00
2018-03-20T11:09:56.560Z,11188.00
2018-03-20T11:10:56.567Z,10828.00
2018-03-20T11:11:56.579Z,10356.00
2018-03-20T11:12:56.595Z,10056.00
2018-03-20T11:13:56.630Z,9448.00
2018-03-20T11:14:56.658Z,10396.00
2018-03-20T11:15:56.645Z,12052.00
2018-03-20T11:16:56.673Z,13992.00
2018-03-20T11:17:56.678Z,15132.00
2018-03-20T11:18:56.689Z,13896.00
2018-03-20T11:19:56.706Z,11448.00
2018-03-20T11:20:56.725Z,11376.00
2018-03-20T11:21:56.772Z,11988.00
2018-03-20T11:22:56.779Z,12820.00
2018-03-20T11:23:56.773Z,12916.00
2018-03-20T11:24:56.780Z,12264.00
2018-03-20T11:25:56.795Z,13392.00
2018-03-20T11:26:56.839Z,12800.00
2018-03-20T11:27:56.834Z,13856.00
2018-03-20T11:28:56.868Z,13096.00
2018-03-20T11:29:56.925Z,12540.00
2018-03-20T11:30:56.879Z,12168.00
2018-03-20T11:31:56.890Z,12100.00
2018-03-20T11:32:56.906Z,12004.00
2018-03-20T11:33:56.917Z,10308.00
2018-03-20T11:34:56.944Z,11112.00
2018-03-20T11:35:56.957Z,12920.00
2018-03-20T11:36:56.967Z,14756.00
2018-03-20T11:37:57.001Z,13456.00
2018-03-20T11:38:57.035Z,11960.00
2018-03-20T11:39:57.013Z,11060.00
2018-03-20T11:40:57.023Z,11500.00
2018-03-20T11:41:57.039Z,12652.00
2018-03-20T11:42:57.053Z,12120.00
2018-03-20T11:43:57.137Z,11168.00
2018-03-20T11:44:57.109Z,10124.00
2018-03-20T11:45:57.168Z,11468.00
2018-03-20T11:46:57.148Z,10320.00
2018-03-20T11:47:57.157Z,11432.00
2018-03-20T11:48:57.152Z,13368.00
2018-03-20T11:49:57.181Z,14772.00
2018-03-20T11:50:57.188Z,15392.00
2018-03-20T11:51:57.205Z,13412.00
2018-03-20T11:52:57.227Z,14140.00
2018-03-20T11:53:57.247Z,12556.00
2018-03-20T11:54:57.260Z,14268.00
2018-03-20T11:55:57.298Z,13148.00
2018-03-20T11:56:57.296Z,13216.00
2018-03-20T11:57:57.293Z,11076.00
2018-03-20T11:58:57.327Z,11172.00
2018-03-20T11:59:57.321Z,12300.00
2018-03-20T12:00:57.338Z,12448.00
2018-03-20T12:01:57.352Z,12956.00
2018-03-20T12:02:57.369Z,14152.00
2018-03-20T12:03:57.386Z,14904.00
2018-03-20T12:04:57.405Z,15952.00
2018-03-20T12:05:57.419Z,14876.00
2018-03-20T12:06:57.428Z,14280.00
2018-03-20T12:07:57.472Z,14100.00
2018-03-20T12:08:57.505Z,15092.00
2018-03-20T12:09:57.482Z,14252.00
2018-03-20T12:10:57.501Z,14632.00
2018-03-20T12:11:57.515Z,14424.00
2018-03-20T12:12:57.559Z,13856.00
2018-03-20T12:13:57.562Z,12560.00
2018-03-20T12:14:57.559Z,9700.00
2018-03-20T12:15:57.584Z,9544.00
2018-03-20T12:16:57.592Z,11228.00
2018-03-20T12:17:57.614Z,12512.00
2018-03-20T12:18:57.618Z,13440.00
2018-03-20T12:19:57.651Z,12928.00
2018-03-20T12:20:57.646Z,13188.00
2018-03-20T12:21:57.676Z,12900.00
2018-03-20T12:22:57.683Z,13972.00
2018-03-20T12:23:57.729Z,12872.00
2018-03-20T12:24:57.708Z,13664.00
2018-03-20T12:25:57.726Z,13124.00
2018-03-20T12:26:57.742Z,14492.00
2018-03-20T12:27:57.805Z,14072.00
2018-03-20T12:28:57.770Z,14396.00
2018-03-20T12:29:57.790Z,12516.00
2018-03-20T12:30:57.879Z,12024.00
2018-03-20T12:31:57.892Z,13384.00